Time;durP1;ratioP1;P1;durP2;ratioP2;P2;SDS_P1;SDS_P2;PMS_P1;PMS_P2;Temp;Humidity;BMP_temperature;BMP_pressure;BME280_temperature;BME280_humidity;BME280_pressure;Samples;Min_cycle;Max_cycle;Signal;HPM_P1;HPM_P2
2023/02/09 00:01:54;;;;;;;21.73;12.03;;;-4.20;99.90;;;;;;4967737;28;20204;-72
2023/02/09 00:04:20;;;;;;;25.90;11.30;;;-4.30;99.90;;;;;;4967780;28;20188;-71
2023/02/09 00:06:45;;;;;;;26.93;12.47;;;-4.30;99.90;;;;;;4959039;28;20928;-72
2023/02/09 00:09:11;;;;;;;19.43;10.20;;;-4.30;99.90;;;;;;4966337;28;20235;-71
2023/02/09 00:14:20;;;;;;;21.00;10.60;;;-4.30;99.90;;;;;;4962282;28;20215;-71
2023/02/09 00:16:46;;;;;;;22.07;12.20;;;-4.30;99.90;;;;;;4958262;28;20457;-71
2023/02/09 00:19:12;;;;;;;20.20;10.67;;;-4.40;99.90;;;;;;4948447;28;20201;-71
2023/02/09 00:21:39;;;;;;;23.27;11.43;;;-4.40;99.90;;;;;;4963480;28;20522;-71
2023/02/09 00:24:05;;;;;;;17.73;10.67;;;-4.40;99.90;;;;;;4962398;28;20424;-71
2023/02/09 00:26:30;;;;;;;22.10;10.80;;;-4.50;99.90;;;;;;4964842;28;20427;-71
2023/02/09 00:28:56;;;;;;;19.77;11.67;;;-4.40;99.90;;;;;;4963203;28;20436;-72
2023/02/09 00:31:21;;;;;;;26.70;12.70;;;-4.50;99.90;;;;;;4963924;28;20242;-71
2023/02/09 00:33:47;;;;;;;22.47;11.07;;;-4.50;99.90;;;;;;4959057;28;20206;-71
2023/02/09 00:36:13;;;;;;;23.07;11.27;;;-4.50;99.90;;;;;;4967148;28;20188;-71
2023/02/09 00:38:39;;;;;;;16.90;10.27;;;-4.60;99.90;;;;;;4965245;28;20304;-71
2023/02/09 00:41:06;;;;;;;24.67;10.90;;;-4.60;99.90;;;;;;4963851;28;20936;-72
2023/02/09 00:43:32;;;;;;;26.60;12.23;;;-4.60;99.90;;;;;;4964532;28;20528;-71
2023/02/09 00:45:57;;;;;;;24.03;12.63;;;-4.70;99.90;;;;;;4967083;28;20495;-73
2023/02/09 00:48:23;;;;;;;20.97;11.10;;;-4.70;99.90;;;;;;4949878;28;20432;-71
2023/02/09 00:50:50;;;;;;;23.27;10.97;;;-4.80;99.90;;;;;;4959032;28;20569;-71
2023/02/09 00:53:16;;;;;;;22.60;11.63;;;-4.80;99.90;;;;;;4967060;28;20770;-71
2023/02/09 00:55:42;;;;;;;29.03;12.67;;;-4.80;99.90;;;;;;4964449;28;20434;-72
2023/02/09 00:58:07;;;;;;;23.23;11.40;;;-4.80;99.90;;;;;;4961527;28;20427;-71
2023/02/09 01:00:33;;;;;;;36.80;11.93;;;-4.90;99.90;;;;;;4965756;28;20227;-71
2023/02/09 01:02:58;;;;;;;23.53;11.67;;;-4.90;99.90;;;;;;4963080;28;20274;-72
2023/02/09 01:05:24;;;;;;;22.67;11.70;;;-4.90;99.90;;;;;;4963321;28;20185;-72
2023/02/09 01:07:50;;;;;;;24.30;12.17;;;-5.00;99.90;;;;;;4966716;28;20236;-71
2023/02/09 01:10:15;;;;;;;22.43;11.27;;;-5.00;99.90;;;;;;4968310;28;20578;-71
2023/02/09 01:12:41;;;;;;;27.40;12.57;;;-5.00;99.90;;;;;;4963309;28;20204;-72
2023/02/09 01:15:09;;;;;;;20.20;10.57;;;-5.00;99.90;;;;;;4960827;28;20177;-72
2023/02/09 01:17:35;;;;;;;26.60;12.47;;;-5.00;99.90;;;;;;4965522;28;20538;-71
2023/02/09 01:20:01;;;;;;;31.10;13.00;;;-5.10;99.90;;;;;;4967698;28;20426;-71
2023/02/09 01:22:27;;;;;;;24.53;11.57;;;-5.10;99.90;;;;;;4966339;28;20418;-74
2023/02/09 01:24:52;;;;;;;22.80;12.30;;;-5.10;99.90;;;;;;4966166;28;20714;-70
2023/02/09 01:27:18;;;;;;;21.67;12.10;;;-5.10;99.90;;;;;;4982207;28;20176;-71
2023/02/09 01:29:44;;;;;;;24.63;13.00;;;-5.10;99.90;;;;;;4964157;28;20216;-71
2023/02/09 01:32:09;;;;;;;37.27;12.60;;;-5.10;99.90;;;;;;4963021;28;20277;-71
2023/02/09 01:34:35;;;;;;;29.33;12.13;;;-5.10;99.90;;;;;;4963705;28;20416;-71
2023/02/09 01:37:00;;;;;;;22.37;11.93;;;-5.10;99.90;;;;;;4966103;28;20650;-72
2023/02/09 01:39:26;;;;;;;21.63;10.90;;;-5.10;99.90;;;;;;4974349;28;20729;-69
2023/02/09 01:41:52;;;;;;;27.70;14.50;;;-5.20;99.90;;;;;;4958002;28;20293;-71
2023/02/09 01:44:18;;;;;;;19.20;11.53;;;-5.20;99.90;;;;;;4966178;28;20179;-71
2023/02/09 01:46:44;;;;;;;21.40;11.60;;;-5.30;99.90;;;;;;4963623;28;20424;-71
2023/02/09 01:49:22;;;;;;;29.40;13.20;;;-5.30;99.90;;;;;;4962792;28;20417;-70
2023/02/09 01:52:07;;;;;;;21.00;11.23;;;-5.30;99.90;;;;;;4962490;28;20550;-71
2023/02/09 01:54:47;;;;;;;27.17;12.57;;;-5.30;99.90;;;;;;4962497;28;20423;-70
2023/02/09 01:57:16;;;;;;;26.60;10.30;;;-5.30;99.90;;;;;;4962666;28;20405;-71
2023/02/09 01:59:45;;;;;;;29.70;13.13;;;-5.30;99.90;;;;;;4962467;28;20841;-71
2023/02/09 03:32:48;;;;;;;32.07;13.23;;;-5.70;99.90;;;;;;4642193;26;20989;-71
2023/02/09 03:35:16;;;;;;;32.77;14.10;;;-5.70;99.90;;;;;;5014077;28;20565;-71
2023/02/09 03:37:42;;;;;;;27.67;12.77;;;-5.70;99.90;;;;;;5015446;28;20431;-71
2023/02/09 03:40:09;;;;;;;24.07;12.90;;;-5.70;99.90;;;;;;5015314;28;20418;-72
2023/02/09 03:42:34;;;;;;;24.23;12.10;;;-5.70;99.90;;;;;;5015162;28;20963;-71
2023/02/09 03:45:00;;;;;;;26.73;12.17;;;-5.80;99.90;;;;;;5014789;28;20419;-71
2023/02/09 03:47:25;;;;;;;27.30;13.77;;;-5.70;99.90;;;;;;5014998;28;20680;-70
2023/02/09 03:49:51;;;;;;;27.90;12.60;;;-5.80;99.90;;;;;;5014363;28;20574;-71
2023/02/09 03:52:16;;;;;;;23.83;12.67;;;-5.80;99.90;;;;;;5014753;28;20213;-72
2023/02/09 03:54:42;;;;;;;28.37;12.93;;;-5.90;99.90;;;;;;5014407;28;20190;-71
2023/02/09 03:57:09;;;;;;;33.10;13.20;;;-5.90;99.90;;;;;;5014889;28;20193;-71
2023/02/09 03:59:36;;;;;;;25.37;11.77;;;-5.90;99.90;;;;;;5014994;28;20182;-70
2023/02/09 04:02:04;;;;;;;41.50;15.67;;;-6.00;99.90;;;;;;5014784;28;20529;-71
2023/02/09 04:04:30;;;;;;;30.73;14.57;;;-6.00;99.90;;;;;;5014817;28;20425;-72
2023/02/09 04:06:56;;;;;;;24.83;13.27;;;-6.00;99.90;;;;;;5014289;28;20899;-70
2023/02/09 04:09:23;;;;;;;20.80;13.00;;;-6.00;99.90;;;;;;5014535;28;20396;-72
2023/02/09 04:11:48;;;;;;;25.40;12.83;;;-6.00;99.90;;;;;;5014447;28;20562;-72
2023/02/09 04:14:14;;;;;;;27.70;13.43;;;-6.00;99.90;;;;;;5013086;28;20888;-72
2023/02/09 04:16:40;;;;;;;22.90;12.30;;;-6.00;99.90;;;;;;5013802;28;20187;-72
2023/02/09 04:19:07;;;;;;;28.13;13.27;;;-6.00;99.90;;;;;;5014639;28;20183;-71
2023/02/09 04:21:33;;;;;;;36.60;13.97;;;-6.00;99.90;;;;;;5014247;28;20203;-71
2023/02/09 04:23:59;;;;;;;26.63;13.17;;;-6.00;99.90;;;;;;5014025;28;20764;-71
2023/02/09 04:26:24;;;;;;;32.77;13.97;;;-6.00;99.90;;;;;;5014133;28;20198;-73
2023/02/09 04:28:50;;;;;;;26.50;14.80;;;-6.00;99.90;;;;;;5014254;28;20191;-72
2023/02/09 04:31:15;;;;;;;28.53;14.03;;;-6.10;99.90;;;;;;5013969;28;20220;-71
2023/02/09 04:33:41;;;;;;;33.80;15.17;;;-6.10;99.90;;;;;;5013911;28;20199;-71
2023/02/09 04:36:07;;;;;;;27.70;14.13;;;-6.10;99.90;;;;;;5014026;28;20203;-71
2023/02/09 04:38:32;;;;;;;26.70;13.07;;;-6.00;99.90;;;;;;5012855;28;20237;-71
2023/02/09 04:41:00;;;;;;;40.30;15.07;;;-6.10;99.90;;;;;;5013856;28;20464;-71
2023/02/09 04:43:26;;;;;;;36.60;15.93;;;-6.10;99.90;;;;;;5013821;28;20188;-71
2023/02/09 04:45:53;;;;;;;29.33;13.67;;;-6.10;99.90;;;;;;5013530;28;20440;-71
2023/02/09 04:48:20;;;;;;;29.73;13.90;;;-6.10;99.90;;;;;;5014555;28;20437;-72
2023/02/09 04:50:46;;;;;;;28.00;13.93;;;-6.10;99.90;;;;;;5014227;28;20445;-71
2023/02/09 04:53:12;;;;;;;28.47;14.40;;;-6.10;99.90;;;;;;5013695;28;20404;-72
2023/02/09 04:55:38;;;;;;;32.40;15.13;;;-6.10;99.90;;;;;;5013514;28;20783;-71
2023/02/09 05:00:48;;;;;;;35.10;14.67;;;-6.00;99.90;;;;;;5013335;28;20833;-72
2023/02/09 05:03:14;;;;;;;39.30;17.30;;;-6.10;99.90;;;;;;5013569;28;20496;-70
2023/02/09 05:05:40;;;;;;;27.60;14.20;;;-6.10;99.90;;;;;;5021712;28;20590;-71
2023/02/09 05:08:06;;;;;;;32.60;15.40;;;-6.20;99.90;;;;;;5013425;28;20677;-71
2023/02/09 05:10:32;;;;;;;32.60;14.50;;;-6.10;99.90;;;;;;5013102;28;20467;-71
2023/02/09 05:12:58;;;;;;;25.50;13.77;;;-6.10;99.90;;;;;;5013345;28;20491;-71
2023/02/09 05:15:23;;;;;;;29.70;15.10;;;-6.00;99.90;;;;;;5012881;28;20500;-71
2023/02/09 05:17:49;;;;;;;29.60;14.30;;;-6.00;99.90;;;;;;5013038;28;20219;-72
2023/02/09 05:20:15;;;;;;;29.57;14.43;;;-6.00;99.90;;;;;;5013201;28;20198;-71
2023/02/09 05:22:40;;;;;;;30.27;14.70;;;-6.10;99.90;;;;;;5011916;28;20216;-71
2023/02/09 05:25:06;;;;;;;34.53;15.60;;;-6.10;99.90;;;;;;5013114;28;20409;-71
2023/02/09 05:27:32;;;;;;;40.73;16.20;;;-6.00;99.90;;;;;;5013082;28;20183;-71
2023/02/09 05:29:57;;;;;;;29.63;13.77;;;-6.10;99.90;;;;;;5012747;28;20206;-70
2023/02/09 05:32:23;;;;;;;36.70;15.23;;;-6.10;99.90;;;;;;5012927;28;20686;-71
2023/02/09 05:34:48;;;;;;;27.83;13.50;;;-6.10;99.90;;;;;;5012639;28;20651;-72
2023/02/09 05:37:14;;;;;;;35.80;15.57;;;-6.10;99.90;;;;;;5012747;28;20182;-70
2023/02/09 05:39:39;;;;;;;35.83;14.40;;;-6.10;99.90;;;;;;5011682;28;20250;-71
2023/02/09 05:42:14;;;;;;;31.70;14.37;;;-6.10;99.90;;;;;;5012424;28;20283;-71
2023/02/09 05:44:40;;;;;;;31.50;14.77;;;-6.10;99.90;;;;;;5012805;28;20182;-71
2023/02/09 05:47:05;;;;;;;31.27;14.63;;;-6.10;99.90;;;;;;5012479;28;20910;-71
2023/02/09 05:49:31;;;;;;;31.07;15.43;;;-6.20;99.90;;;;;;5012893;28;20454;-71
2023/02/09 05:51:56;;;;;;;35.93;15.27;;;-6.20;99.90;;;;;;5012983;28;20277;-71
2023/02/09 05:54:22;;;;;;;33.83;15.90;;;-6.20;99.90;;;;;;5015690;28;20274;-72
2023/02/09 05:56:47;;;;;;;25.93;15.13;;;-6.20;99.90;;;;;;5014595;28;20285;-71
2023/02/09 05:59:13;;;;;;;28.20;14.90;;;-6.30;99.90;;;;;;5013013;28;20186;-71
2023/02/09 06:01:38;;;;;;;42.63;17.50;;;-6.20;99.90;;;;;;5012436;28;20219;-71
2023/02/09 06:04:05;;;;;;;31.57;15.20;;;-6.20;99.90;;;;;;5012045;28;20194;-72
2023/02/09 06:06:30;;;;;;;32.70;17.57;;;-6.30;99.90;;;;;;5012252;28;20484;-72
2023/02/09 06:08:56;;;;;;;38.20;15.30;;;-6.30;99.90;;;;;;5012508;28;20408;-71
2023/02/09 06:11:21;;;;;;;32.77;16.27;;;-6.30;99.90;;;;;;5012035;28;20221;-71
2023/02/09 06:13:46;;;;;;;35.40;16.50;;;-6.30;99.90;;;;;;5011696;28;20659;-70
2023/02/09 06:16:12;;;;;;;37.87;17.53;;;-6.20;99.90;;;;;;5012138;28;20266;-71
2023/02/09 06:18:37;;;;;;;36.33;17.10;;;-6.30;99.90;;;;;;5012430;28;20185;-71
2023/02/09 06:21:04;;;;;;;32.60;16.20;;;-6.30;99.90;;;;;;5011803;28;20711;-71
2023/02/09 06:23:29;;;;;;;30.50;15.27;;;-6.20;99.90;;;;;;5012007;28;20249;-71
2023/02/09 06:25:56;;;;;;;33.27;15.90;;;-6.30;99.90;;;;;;5011575;28;21009;-72
2023/02/09 06:28:22;;;;;;;37.33;18.10;;;-6.30;99.90;;;;;;5011720;28;20191;-71
2023/02/09 06:30:51;;;;;;;38.27;17.90;;;-6.20;99.90;;;;;;5011395;28;20820;-73
2023/02/09 06:33:18;;;;;;;31.03;18.53;;;-6.20;99.90;;;;;;5010886;28;20688;-71
2023/02/09 06:35:44;;;;;;;36.40;17.87;;;-6.20;99.90;;;;;;5008954;28;20607;-71
2023/02/09 06:38:09;;;;;;;36.10;18.17;;;-6.10;99.90;;;;;;5009900;28;20535;-69
2023/02/09 06:40:35;;;;;;;40.33;20.23;;;-6.10;99.90;;;;;;5011920;28;20409;-68
2023/02/09 06:43:01;;;;;;;42.77;19.00;;;-5.90;99.90;;;;;;5011296;28;20192;-70
2023/02/09 06:45:27;;;;;;;34.30;17.83;;;-5.90;99.90;;;;;;5010677;28;20667;-70
2023/02/09 06:47:52;;;;;;;38.70;18.63;;;-5.90;99.90;;;;;;5010953;28;20551;-71
2023/02/09 06:50:18;;;;;;;33.90;17.00;;;-5.90;99.90;;;;;;5011009;28;20329;-68
2023/02/09 06:52:44;;;;;;;38.53;19.23;;;-5.90;99.90;;;;;;5010666;28;20225;-69
2023/02/09 06:55:10;;;;;;;37.43;19.30;;;-5.80;99.90;;;;;;5011051;28;20509;-70
2023/02/09 06:57:35;;;;;;;37.80;18.77;;;-5.80;99.90;;;;;;5011247;28;20203;-72
2023/02/09 07:00:04;;;;;;;37.53;19.37;;;-5.80;99.90;;;;;;5010777;28;20202;-70
2023/02/09 07:02:29;;;;;;;40.63;19.40;;;-5.70;99.90;;;;;;5011707;28;20217;-71
2023/02/09 07:04:56;;;;;;;37.13;18.13;;;-5.70;99.90;;;;;;5011688;28;20417;-71
2023/02/09 07:07:22;;;;;;;41.77;19.90;;;-5.70;99.90;;;;;;5010964;28;20557;-70
2023/02/09 07:09:47;;;;;;;36.83;19.43;;;-5.70;99.90;;;;;;5011451;28;20422;-69
2023/02/09 07:12:13;;;;;;;38.67;18.67;;;-5.60;99.90;;;;;;5003018;28;20223;-70
2023/02/09 07:14:38;;;;;;;33.10;17.50;;;-5.60;99.90;;;;;;5011508;28;20187;-70
2023/02/09 07:17:04;;;;;;;34.83;17.77;;;-5.60;99.90;;;;;;5011008;28;20298;-70
2023/02/09 07:19:29;;;;;;;38.93;19.17;;;-5.50;99.90;;;;;;5011456;28;20201;-69
2023/02/09 07:21:55;;;;;;;35.13;20.03;;;-5.50;99.90;;;;;;5010792;28;20281;-69
2023/02/09 07:24:20;;;;;;;41.03;19.00;;;-5.40;99.90;;;;;;5010874;28;20195;-70
2023/02/09 07:26:46;;;;;;;31.87;17.43;;;-5.40;99.90;;;;;;5010991;28;20671;-70
2023/02/09 07:29:11;;;;;;;37.93;19.33;;;-5.30;99.90;;;;;;5010725;28;20244;-69
2023/02/09 07:31:37;;;;;;;35.63;18.20;;;-5.20;99.90;;;;;;5010860;28;20224;-70
2023/02/09 07:34:02;;;;;;;41.53;19.40;;;-5.10;99.90;;;;;;5009544;28;20182;-71
2023/02/09 07:36:28;;;;;;;39.60;20.50;;;-4.40;99.90;;;;;;5011568;28;20243;-70
2023/02/09 07:38:55;;;;;;;43.53;20.00;;;-3.20;99.90;;;;;;5011244;28;20260;-71
2023/02/09 07:41:24;;;;;;;36.23;17.10;;;-2.10;99.90;;;;;;5011121;28;20247;-71
2023/02/09 07:43:50;;;;;;;34.37;18.40;;;-0.90;99.90;;;;;;5010743;28;20440;-70
2023/02/09 07:46:18;;;;;;;31.53;17.80;;;0.40;99.90;;;;;;5008448;28;20407;-70
2023/02/09 07:48:43;;;;;;;33.43;17.67;;;1.40;99.90;;;;;;5010880;28;20458;-72
2023/02/09 07:51:24;;;;;;;32.67;18.00;;;2.30;99.90;;;;;;5010155;28;20484;-71
2023/02/09 07:53:50;;;;;;;31.07;18.23;;;3.40;99.90;;;;;;5010694;28;20685;-71
2023/02/09 07:56:16;;;;;;;29.07;18.80;;;3.50;99.90;;;;;;5010219;28;20425;-70
2023/02/09 07:58:42;;;;;;;36.80;22.77;;;3.80;99.90;;;;;;5010705;28;20969;-71
2023/02/09 08:01:10;;;;;;;38.37;23.13;;;4.40;99.90;;;;;;5010265;28;20601;-71
2023/02/09 08:03:38;;;;;;;37.93;22.67;;;4.60;99.90;;;;;;5010545;28;20201;-71
2023/02/09 08:06:29;;;;;;;33.00;22.47;;;5.40;99.90;;;;;;5010445;28;20499;-71
2023/02/09 08:08:54;;;;;;;41.10;23.63;;;5.90;99.90;;;;;;5010390;28;20860;-71
2023/02/09 08:11:27;;;;;;;36.10;24.80;;;6.00;99.90;;;;;;5010380;28;20565;-71
2023/02/09 08:13:55;;;;;;;36.73;24.10;;;6.70;99.90;;;;;;5014384;28;20204;-71
2023/02/09 08:16:25;;;;;;;39.80;23.80;;;6.80;99.90;;;;;;5015954;28;20436;-70
2023/02/09 08:18:56;;;;;;;41.60;26.40;;;6.80;99.90;;;;;;5015460;28;20453;-71
2023/02/09 08:21:22;;;;;;;38.67;24.53;;;6.60;99.90;;;;;;5006793;28;20478;-71
2023/02/09 08:23:52;;;;;;;35.67;24.43;;;6.60;99.90;;;;;;5014136;28;20432;-73
2023/02/09 08:26:17;;;;;;;37.07;24.97;;;6.00;99.90;;;;;;5014018;28;20415;-70
2023/02/09 08:28:44;;;;;;;42.37;26.27;;;5.40;99.90;;;;;;5014138;28;20521;-71
2023/02/09 08:31:15;;;;;;;41.07;25.00;;;5.20;99.90;;;;;;5013496;28;20213;-70
2023/02/09 08:33:41;;;;;;;38.37;24.50;;;4.90;99.90;;;;;;5013831;28;20688;-70
2023/02/09 08:36:07;;;;;;;39.53;23.87;;;4.50;99.90;;;;;;5013151;28;20514;-70
2023/02/09 08:38:34;;;;;;;41.50;25.60;;;4.00;99.90;;;;;;5013612;28;20519;-70
2023/02/09 08:41:03;;;;;;;42.43;25.27;;;3.70;99.90;;;;;;5013489;28;20210;-71
2023/02/09 08:43:29;;;;;;;42.97;25.20;;;3.40;99.90;;;;;;5013791;28;21019;-71
2023/02/09 08:46:07;;;;;;;49.43;26.40;;;3.30;99.90;;;;;;5010589;28;20790;-69
2023/02/09 08:48:34;;;;;;;42.03;26.47;;;3.10;99.90;;;;;;5013406;28;20425;-69
2023/02/09 08:51:00;;;;;;;39.23;24.57;;;3.10;99.90;;;;;;5012937;28;20479;-69
2023/02/09 08:53:26;;;;;;;44.30;23.43;;;2.90;99.90;;;;;;5013321;28;20434;-70
2023/02/09 08:55:52;;;;;;;36.80;22.60;;;2.80;99.90;;;;;;5013209;28;20566;-70
2023/02/09 08:58:17;;;;;;;46.70;25.60;;;2.80;99.90;;;;;;5013161;28;20429;-70
2023/02/09 09:00:43;;;;;;;40.90;25.43;;;2.70;99.90;;;;;;5013569;28;20217;-71
2023/02/09 09:03:08;;;;;;;39.57;22.77;;;2.50;99.90;;;;;;5013114;28;20622;-69
2023/02/09 09:05:34;;;;;;;40.57;23.53;;;2.60;99.90;;;;;;5013218;28;20201;-71
2023/02/09 09:08:00;;;;;;;44.60;24.33;;;2.70;99.90;;;;;;5012924;28;20201;-68
2023/02/09 09:10:26;;;;;;;37.07;23.33;;;2.60;99.90;;;;;;5012730;28;20212;-69
2023/02/09 09:12:52;;;;;;;37.07;22.20;;;2.90;99.90;;;;;;5013361;28;20426;-70
2023/02/09 09:15:17;;;;;;;39.70;22.47;;;2.80;99.90;;;;;;5012440;28;20804;-69
2023/02/09 09:17:43;;;;;;;51.73;23.07;;;3.00;99.90;;;;;;5013533;28;20185;-70
2023/02/09 09:20:09;;;;;;;38.40;24.17;;;3.20;99.90;;;;;;5012883;28;20269;-69
2023/02/09 09:22:35;;;;;;;39.37;23.10;;;3.30;99.90;;;;;;5012782;28;20824;-70
2023/02/09 09:25:01;;;;;;;40.50;23.23;;;3.50;99.90;;;;;;5012932;28;20430;-70
2023/02/09 09:27:27;;;;;;;39.87;23.43;;;3.80;99.90;;;;;;5012537;28;20435;-71
2023/02/09 09:29:53;;;;;;;39.87;23.20;;;4.20;99.90;;;;;;5012389;28;20185;-71
2023/02/09 09:32:23;;;;;;;39.90;23.57;;;4.30;99.90;;;;;;5010217;28;20552;-71
2023/02/09 09:34:54;;;;;;;43.80;23.80;;;4.70;99.90;;;;;;5010692;28;20437;-70
2023/02/09 09:37:21;;;;;;;40.90;25.93;;;4.90;99.90;;;;;;5010771;28;20436;-71
2023/02/09 09:39:47;;;;;;;40.70;25.20;;;5.00;99.90;;;;;;5012498;28;20764;-71
2023/02/09 09:42:26;;;;;;;42.07;25.00;;;4.80;99.90;;;;;;5012277;28;20453;-71
2023/02/09 09:44:52;;;;;;;39.50;24.70;;;5.20;99.90;;;;;;5012708;28;20429;-70
2023/02/09 09:47:32;;;;;;;39.83;24.13;;;5.30;99.90;;;;;;5012311;28;20823;-70
2023/02/09 09:49:57;;;;;;;49.90;27.70;;;5.40;99.90;;;;;;5012804;28;21000;-69
2023/02/09 09:52:38;;;;;;;44.33;26.70;;;5.70;99.90;;;;;;5004747;28;20478;-72
2023/02/09 09:55:12;;;;;;;43.03;24.23;;;5.40;99.90;;;;;;5012336;28;20191;-71
2023/02/09 09:57:43;;;;;;;51.83;26.93;;;5.90;99.90;;;;;;5012715;28;20430;-71
2023/02/09 10:00:19;;;;;;;43.20;25.73;;;6.20;99.90;;;;;;5012443;28;20439;-70
2023/02/09 10:02:44;;;;;;;44.07;25.20;;;6.50;99.90;;;;;;5012702;28;20989;-71
2023/02/09 10:05:18;;;;;;;42.60;26.43;;;6.40;99.90;;;;;;5012127;28;20425;-72
2023/02/09 10:07:54;;;;;;;50.60;26.17;;;6.50;99.90;;;;;;5012464;28;20272;-72
2023/02/09 10:10:42;;;;;;;43.57;25.23;;;6.50;99.90;;;;;;5012079;28;20426;-70
2023/02/09 10:13:23;;;;;;;44.93;26.50;;;6.50;99.90;;;;;;5012479;28;20430;-73
2023/02/09 10:15:51;;;;;;;38.07;24.87;;;6.60;99.90;;;;;;5012292;28;20507;-71
2023/02/09 10:18:23;;;;;;;46.93;28.00;;;6.60;99.90;;;;;;5012107;28;20844;-69
2023/02/09 10:21:02;;;;;;;41.93;25.60;;;6.70;99.90;;;;;;5012307;28;20884;-71
2023/02/09 10:23:36;;;;;;;36.27;23.83;;;6.70;99.90;;;;;;5004545;28;20936;-72
2023/02/09 10:26:07;;;;;;;42.07;24.43;;;6.80;99.90;;;;;;5012337;28;20433;-71
2023/02/09 10:28:39;;;;;;;40.80;24.77;;;7.00;99.90;;;;;;5012513;28;21036;-71
2023/02/09 10:31:14;;;;;;;42.03;24.30;;;7.00;99.90;;;;;;5011826;28;20475;-73
2023/02/09 10:33:43;;;;;;;40.40;24.50;;;7.10;99.90;;;;;;5012200;28;20443;-71
2023/02/09 10:36:24;;;;;;;47.03;25.50;;;6.90;99.90;;;;;;5011532;28;20424;-71
2023/02/09 10:38:50;;;;;;;39.27;23.80;;;7.10;99.90;;;;;;5012453;28;20520;-73
2023/02/09 10:41:15;;;;;;;37.70;25.53;;;7.20;99.90;;;;;;5011998;28;20505;-72
2023/02/09 10:43:41;;;;;;;38.80;24.00;;;7.20;99.90;;;;;;5012136;28;20439;-72
2023/02/09 10:46:14;;;;;;;38.33;25.97;;;7.20;99.90;;;;;;5012176;28;20183;-71
2023/02/09 10:48:42;;;;;;;47.00;26.03;;;7.10;99.90;;;;;;5012197;28;20505;-72
2023/02/09 10:51:14;;;;;;;44.17;25.90;;;7.20;99.90;;;;;;5011787;28;20469;-73
2023/02/09 10:53:58;;;;;;;46.33;27.07;;;7.30;99.90;;;;;;5011745;28;20422;-71
2023/02/09 10:56:27;;;;;;;38.37;23.57;;;7.30;99.90;;;;;;5011485;28;20422;-71
2023/02/09 10:59:13;;;;;;;41.73;24.93;;;7.20;99.90;;;;;;5012113;28;20462;-72
2023/02/09 11:01:41;;;;;;;38.93;24.13;;;7.10;99.90;;;;;;5003472;28;20479;-72
2023/02/09 11:04:19;;;;;;;44.40;25.27;;;7.30;99.90;;;;;;5010551;28;20424;-72
2023/02/09 11:06:56;;;;;;;40.80;24.10;;;7.20;99.90;;;;;;5011882;28;20441;-71
2023/02/09 11:09:38;;;;;;;37.90;23.00;;;7.30;99.90;;;;;;5011411;28;20513;-72
2023/02/09 11:12:08;;;;;;;39.43;24.37;;;7.30;99.90;;;;;;5011918;28;20468;-71
2023/02/09 11:14:33;;;;;;;43.60;24.40;;;7.40;99.90;;;;;;5011806;28;20793;-71
2023/02/09 11:17:20;;;;;;;40.13;23.27;;;7.40;99.90;;;;;;5011431;28;20432;-71
2023/02/09 11:20:03;;;;;;;40.50;23.10;;;7.20;99.90;;;;;;5005772;28;20206;-71
2023/02/09 11:22:42;;;;;;;37.43;23.43;;;7.30;99.90;;;;;;5002762;28;20455;-71
2023/02/09 11:25:26;;;;;;;41.47;23.97;;;7.50;99.90;;;;;;5001150;28;20946;-73
2023/02/09 11:28:09;;;;;;;38.60;23.23;;;7.40;99.90;;;;;;5003983;28;20462;-71
2023/02/09 11:31:01;;;;;;;43.90;26.50;;;7.40;99.90;;;;;;5005607;28;20554;-72
2023/02/09 11:33:46;;;;;;;36.00;24.17;;;7.50;99.90;;;;;;5006522;28;20419;-72
2023/02/09 11:36:34;;;;;;;47.30;24.33;;;7.20;99.90;;;;;;5011552;28;20502;-71
2023/02/09 11:39:03;;;;;;;43.67;25.30;;;6.90;99.90;;;;;;5011373;28;20426;-72
2023/02/09 11:44:42;;;;;;;39.67;23.70;;;6.80;99.90;;;;;;5010399;28;20940;-71
2023/02/09 11:47:19;;;;;;;39.90;23.80;;;6.70;99.90;;;;;;5013695;28;20453;-72
2023/02/09 11:49:50;;;;;;;40.90;23.30;;;6.90;99.90;;;;;;5014964;28;20916;-71
2023/02/09 11:52:32;;;;;;;38.33;23.83;;;6.90;99.90;;;;;;5014308;28;20477;-73
2023/02/09 11:55:01;;;;;;;41.47;24.37;;;6.80;99.90;;;;;;5014808;28;20438;-73
2023/02/09 11:57:35;;;;;;;41.53;24.90;;;6.90;99.90;;;;;;5014374;28;20427;-69
2023/02/09 12:00:04;;;;;;;42.10;24.50;;;7.10;99.90;;;;;;5014810;28;20439;-73
2023/02/09 12:02:51;;;;;;;42.80;25.07;;;7.20;99.90;;;;;;5014258;28;20452;-71
2023/02/09 12:05:19;;;;;;;50.90;24.43;;;7.10;99.90;;;;;;5014274;28;20430;-71
2023/02/09 12:08:22;;;;;;;42.00;24.20;;;7.20;99.90;;;;;;5014511;28;20443;-72
2023/02/09 12:11:06;;;;;;;34.47;22.60;;;6.90;99.90;;;;;;5009046;28;20475;-70
2023/02/09 12:14:04;;;;;;;42.43;22.73;;;6.70;99.90;;;;;;5006578;28;20428;-72
2023/02/09 12:16:38;;;;;;;36.63;22.90;;;6.60;99.90;;;;;;5000264;28;20491;-70
2023/02/09 12:19:13;;;;;;;39.60;21.97;;;6.30;99.90;;;;;;5014790;28;20913;-71
2023/02/09 12:21:40;;;;;;;38.53;23.23;;;6.20;99.90;;;;;;5007769;28;20499;-71
2023/02/09 12:24:32;;;;;;;43.57;22.80;;;6.10;99.90;;;;;;5014059;28;20963;-70
2023/02/09 12:26:57;;;;;;;40.63;22.37;;;6.30;99.90;;;;;;5011068;28;20439;-72
2023/02/09 12:29:29;;;;;;;39.13;22.93;;;6.50;99.90;;;;;;5013659;28;20436;-71
2023/02/09 12:32:03;;;;;;;42.13;22.67;;;6.50;99.90;;;;;;5014724;28;20279;-71
2023/02/09 12:34:41;;;;;;;38.87;23.60;;;6.30;99.90;;;;;;5012956;28;20421;-70
2023/02/09 12:37:12;;;;;;;43.77;23.37;;;6.10;99.90;;;;;;5013337;28;20498;-70
2023/02/09 12:40:10;;;;;;;33.13;21.40;;;6.10;99.90;;;;;;5005392;28;21007;-71
2023/02/09 12:43:08;;;;;;;40.43;22.50;;;6.00;99.90;;;;;;5005433;28;20439;-72
2023/02/09 12:45:38;;;;;;;43.87;23.63;;;6.10;99.90;;;;;;5004966;28;20464;-71
2023/02/09 12:48:06;;;;;;;44.77;23.57;;;6.10;99.90;;;;;;5013341;28;20432;-72
2023/02/09 12:50:53;;;;;;;41.23;23.50;;;6.00;99.90;;;;;;5004518;28;20898;-72
2023/02/09 12:53:21;;;;;;;41.23;24.97;;;6.00;99.90;;;;;;5014353;28;20432;-72
2023/02/09 12:56:27;;;;;;;37.63;22.83;;;6.00;99.90;;;;;;5014524;28;20456;-72
2023/02/09 12:59:07;;;;;;;36.93;22.60;;;5.70;99.90;;;;;;5007884;28;20527;-71
2023/02/09 13:02:06;;;;;;;45.40;22.87;;;5.70;99.90;;;;;;5013335;28;20452;-71
2023/02/09 13:04:47;;;;;;;37.03;22.73;;;5.60;99.90;;;;;;5013133;28;20504;-73
2023/02/09 13:07:31;;;;;;;42.70;22.83;;;5.50;99.90;;;;;;5013709;28;20853;-72
2023/02/09 13:10:17;;;;;;;38.90;23.07;;;5.60;99.90;;;;;;5013723;28;20434;-72
2023/02/09 13:12:49;;;;;;;37.13;23.23;;;5.50;99.90;;;;;;5006564;28;20464;-72
2023/02/09 13:15:16;;;;;;;40.43;24.27;;;5.50;99.90;;;;;;5013338;28;20459;-70
2023/02/09 13:18:15;;;;;;;42.27;22.23;;;5.60;99.90;;;;;;5013164;28;20428;-71
2023/02/09 13:21:11;;;;;;;51.03;24.20;;;5.70;99.90;;;;;;5006055;28;20455;-69
2023/02/09 13:23:57;;;;;;;43.80;23.37;;;5.80;99.90;;;;;;5005324;28;20462;-71
2023/02/09 13:26:30;;;;;;;35.10;21.13;;;5.90;99.90;;;;;;5012882;28;20498;-71
2023/02/09 13:29:26;;;;;;;46.97;24.00;;;5.90;99.90;;;;;;5013200;28;20434;-72
2023/02/09 13:32:11;;;;;;;45.17;22.83;;;5.90;99.90;;;;;;4994899;28;20491;-71
2023/02/09 13:34:43;;;;;;;42.27;24.40;;;5.80;99.90;;;;;;5005036;28;20436;-71
2023/02/09 13:37:11;;;;;;;41.40;24.67;;;5.70;99.90;;;;;;5012971;28;20833;-72
2023/02/09 13:39:39;;;;;;;38.07;23.73;;;5.50;99.90;;;;;;5004859;28;20507;-72
2023/02/09 13:42:20;;;;;;;38.30;22.90;;;5.30;99.90;;;;;;5012733;28;20451;-71
2023/02/09 13:44:48;;;;;;;39.43;22.47;;;5.40;99.90;;;;;;5006332;28;20488;-72
2023/02/09 13:47:14;;;;;;;35.20;22.70;;;5.40;99.90;;;;;;5012806;28;20776;-70
2023/02/09 13:49:41;;;;;;;31.50;20.93;;;5.40;99.90;;;;;;5013018;28;20513;-71
2023/02/09 13:52:15;;;;;;;41.50;22.20;;;5.30;99.90;;;;;;5012873;28;20568;-69
2023/02/09 13:54:41;;;;;;;39.23;23.23;;;5.30;99.90;;;;;;5005315;28;20423;-70
2023/02/09 13:57:23;;;;;;;40.00;25.20;;;5.30;99.90;;;;;;5012936;28;20800;-71
2023/02/09 13:59:49;;;;;;;44.90;24.53;;;5.20;99.90;;;;;;5006220;28;20485;-70
2023/02/09 14:02:20;;;;;;;44.30;23.83;;;5.20;99.90;;;;;;5012570;28;20970;-70
2023/02/09 14:04:49;;;;;;;39.97;23.90;;;5.00;99.90;;;;;;5012554;28;20616;-71
2023/02/09 14:07:16;;;;;;;41.47;23.97;;;5.00;99.90;;;;;;5012801;28;20436;-71
2023/02/09 14:09:57;;;;;;;38.37;24.30;;;5.00;99.90;;;;;;5011862;28;20440;-69
2023/02/09 14:12:58;;;;;;;41.37;23.57;;;5.10;99.90;;;;;;5012432;28;20516;-71
2023/02/09 14:18:47;;;;;;;39.70;24.00;;;5.10;99.90;;;;;;5012657;28;20405;-72
2023/02/09 14:21:38;;;;;;;44.40;23.03;;;5.10;99.90;;;;;;5012244;28;20447;-70
2023/02/09 14:24:15;;;;;;;37.70;22.10;;;5.00;99.90;;;;;;5005642;28;20432;-71
2023/02/09 14:27:02;;;;;;;40.60;23.90;;;5.00;99.90;;;;;;5011769;28;20426;-69
2023/02/09 14:29:36;;;;;;;37.50;24.13;;;5.00;99.90;;;;;;5010644;28;20799;-71
2023/02/09 14:32:19;;;;;;;48.40;25.60;;;5.00;99.90;;;;;;5011812;28;20531;-72